createdAt,value
2024-02-08T00:00:32.879Z,97554.00
2024-02-08T00:03:26.412Z,97550.52
2024-02-08T00:05:59.855Z,97556.84
2024-02-08T00:08:36.518Z,97557.98
2024-02-08T00:11:10.192Z,97550.25
2024-02-08T00:13:43.778Z,97550.70
2024-02-08T00:16:17.593Z,97555.70
2024-02-08T00:18:51.432Z,97549.06
2024-02-08T00:21:25.120Z,97549.05
2024-02-08T00:23:58.779Z,97550.48
2024-02-08T00:26:32.760Z,97547.61
2024-02-08T00:29:06.519Z,97551.82
2024-02-08T00:31:40.260Z,97553.11
2024-02-08T00:34:14.006Z,97560.69
2024-02-08T00:36:50.379Z,97563.67
2024-02-08T00:39:24.181Z,97563.84
2024-02-08T00:41:59.261Z,97559.10
2024-02-08T00:44:32.873Z,97562.04
2024-02-08T00:47:07.850Z,97565.19
2024-02-08T00:49:41.983Z,97567.02
2024-02-08T00:52:15.574Z,97558.56
2024-02-08T00:54:52.287Z,97558.55
2024-02-08T00:57:26.312Z,97558.70
2024-02-08T01:00:00.286Z,97565.81
2024-02-08T01:02:36.270Z,97569.02
2024-02-08T01:05:10.785Z,97571.55
2024-02-08T01:07:44.491Z,97573.59
2024-02-08T01:10:18.273Z,97567.16
2024-02-08T01:12:53.734Z,97556.48
2024-02-08T01:15:27.972Z,97560.54
2024-02-08T01:18:04.657Z,97561.34
2024-02-08T01:20:38.149Z,97557.45
2024-02-08T01:23:11.760Z,97561.70
2024-02-08T01:25:45.397Z,97558.16
2024-02-08T01:28:19.129Z,97559.17
2024-02-08T01:30:53.869Z,97555.06
2024-02-08T01:33:27.807Z,97552.54
2024-02-08T01:36:01.430Z,97559.65
2024-02-08T01:38:34.867Z,97560.77
2024-02-08T01:41:08.586Z,97557.44
2024-02-08T01:43:42.099Z,97561.70
2024-02-08T01:46:17.198Z,97561.38
2024-02-08T01:48:51.029Z,97555.77
2024-02-08T01:51:25.930Z,97555.21
2024-02-08T01:54:02.517Z,97551.89
2024-02-08T01:56:37.664Z,97550.23
2024-02-08T01:59:13.000Z,97553.70
2024-02-08T02:01:51.951Z,97552.48
2024-02-08T02:04:25.670Z,97554.84
2024-02-08T02:07:03.458Z,97553.01
2024-02-08T02:09:37.479Z,97552.77
2024-02-08T02:12:16.719Z,97550.23
2024-02-08T02:14:50.422Z,97553.26
2024-02-08T02:17:27.516Z,97548.59
2024-02-08T02:20:08.255Z,97544.23
2024-02-08T02:22:44.618Z,97545.02
2024-02-08T02:25:18.415Z,97545.72
2024-02-08T02:27:54.424Z,97546.27
2024-02-08T02:30:29.728Z,97539.70
2024-02-08T02:33:05.238Z,97543.00
2024-02-08T02:35:38.745Z,97540.81
2024-02-08T02:38:14.550Z,97536.13
2024-02-08T02:40:48.512Z,97538.89
2024-02-08T02:43:27.555Z,97539.20
2024-02-08T02:46:01.326Z,97540.70
2024-02-08T02:48:36.210Z,97541.95
2024-02-08T02:51:12.985Z,97546.76
2024-02-08T02:53:46.685Z,97545.38
2024-02-08T02:56:20.946Z,97541.84
2024-02-08T02:58:55.923Z,97539.48
2024-02-08T03:01:34.928Z,97535.61
2024-02-08T03:04:08.845Z,97539.23
2024-02-08T03:06:43.968Z,97536.64
2024-02-08T03:09:18.749Z,97536.86
2024-02-08T03:11:52.446Z,97531.02
2024-02-08T03:14:25.957Z,97531.27
2024-02-08T03:17:03.164Z,97535.45
2024-02-08T03:19:37.969Z,97536.23
2024-02-08T03:22:11.680Z,97545.52
2024-02-08T03:24:45.592Z,97544.66
2024-02-08T03:27:22.934Z,97549.25
2024-02-08T03:29:56.488Z,97546.95
2024-02-08T03:32:30.185Z,97540.21
2024-02-08T03:35:06.326Z,97542.06
2024-02-08T03:37:45.042Z,97542.84
2024-02-08T03:40:17.057Z,97539.34
2024-02-08T03:42:51.107Z,97536.63
2024-02-08T03:45:28.726Z,97533.23
2024-02-08T03:48:03.051Z,97531.12
2024-02-08T03:50:36.744Z,97531.98
2024-02-08T03:53:14.116Z,97529.23
2024-02-08T03:55:48.666Z,97525.99
2024-02-08T03:58:24.582Z,97530.95
2024-02-08T04:01:01.435Z,97538.85
2024-02-08T04:03:54.569Z,97546.91
2024-02-08T04:06:50.517Z,97550.08
2024-02-08T04:09:35.715Z,97548.66
2024-02-08T04:12:28.801Z,97550.62
2024-02-08T04:15:19.759Z,97549.73
2024-02-08T04:18:10.960Z,97545.77
2024-02-08T04:21:02.393Z,97547.98
2024-02-08T04:23:52.200Z,97541.40
2024-02-08T04:26:46.140Z,97536.92
2024-02-08T04:29:38.067Z,97538.61
2024-02-08T04:32:29.904Z,97539.35
2024-02-08T04:35:21.258Z,97538.26
2024-02-08T04:38:12.561Z,97539.12
2024-02-08T04:41:02.363Z,97536.91
2024-02-08T04:44:04.592Z,97538.50
2024-02-08T04:46:55.712Z,97541.27
2024-02-08T04:49:57.678Z,97536.27
2024-02-08T04:52:48.454Z,97534.33
2024-02-08T04:55:22.111Z,97532.70
2024-02-08T04:58:19.309Z,97532.87
2024-02-08T05:00:50.645Z,97533.59
2024-02-08T05:03:24.456Z,97532.50
2024-02-08T05:05:58.344Z,97533.53
2024-02-08T05:08:32.396Z,97533.06
2024-02-08T05:11:10.811Z,97537.87
2024-02-08T05:13:44.251Z,97542.34
2024-02-08T05:16:18.620Z,97538.89
2024-02-08T05:18:54.672Z,97541.98
2024-02-08T05:21:32.408Z,97544.65
2024-02-08T05:24:06.732Z,97546.05
2024-02-08T05:26:41.969Z,97544.71
2024-02-08T05:29:21.094Z,97542.10
2024-02-08T05:31:55.548Z,97541.45
2024-02-08T05:34:29.646Z,97538.59
2024-02-08T05:37:04.702Z,97539.54
2024-02-08T05:39:38.743Z,97541.98
2024-02-08T05:42:15.464Z,97544.73
2024-02-08T05:44:49.887Z,97546.77
2024-02-08T05:47:27.504Z,97548.67
2024-02-08T05:50:08.161Z,97550.23
2024-02-08T05:52:41.607Z,97549.23
2024-02-08T05:55:15.138Z,97554.70
2024-02-08T05:57:48.730Z,97561.08
2024-02-08T06:00:37.319Z,97558.61
2024-02-08T06:03:11.168Z,97551.33
2024-02-08T06:05:50.426Z,97551.08
2024-02-08T06:08:27.339Z,97552.48
2024-02-08T06:11:05.410Z,97551.01
2024-02-08T06:13:42.760Z,97554.27
2024-02-08T06:16:27.765Z,97555.66
2024-02-08T06:19:05.176Z,97563.98
2024-02-08T06:21:41.927Z,97562.26
2024-02-08T06:24:33.466Z,97566.41
2024-02-08T06:27:14.806Z,97570.13
2024-02-08T06:29:49.095Z,97567.73
2024-02-08T06:32:45.487Z,97564.91
2024-02-08T06:35:26.770Z,97562.94
2024-02-08T06:38:03.942Z,97568.77
2024-02-08T06:40:51.955Z,97571.91
2024-02-08T06:43:46.452Z,97569.70
2024-02-08T06:46:40.330Z,97565.16
2024-02-08T06:49:31.746Z,97555.55
2024-02-08T06:52:23.541Z,97558.55
2024-02-08T06:55:14.894Z,97554.62
2024-02-08T06:58:06.401Z,97562.88
2024-02-08T07:00:57.612Z,97564.45
2024-02-08T07:03:48.903Z,97561.73
2024-02-08T07:06:40.197Z,97563.24
2024-02-08T07:09:31.239Z,97566.45
2024-02-08T07:12:34.208Z,97563.79
2024-02-08T07:15:27.196Z,97567.96
2024-02-08T07:18:14.826Z,97566.69
2024-02-08T07:21:05.713Z,97562.45
2024-02-08T07:23:56.915Z,97561.92
2024-02-08T07:26:46.482Z,97567.14
2024-02-08T07:29:39.588Z,97566.77
2024-02-08T07:32:30.881Z,97570.23
2024-02-08T07:35:22.846Z,97573.10
2024-02-08T07:37:57.091Z,97568.70
2024-02-08T07:40:36.518Z,97570.30
2024-02-08T07:43:21.427Z,97571.59
2024-02-08T07:45:56.975Z,97566.42
2024-02-08T07:48:41.127Z,97562.14
2024-02-08T07:51:17.313Z,97555.05
2024-02-08T07:53:55.114Z,97553.86
2024-02-08T07:56:41.240Z,97554.39
2024-02-08T07:59:37.074Z,97557.64
2024-02-08T08:02:25.923Z,97561.50
2024-02-08T08:05:04.591Z,97559.17
2024-02-08T08:07:45.952Z,97554.36
2024-02-08T08:10:27.152Z,97545.73
2024-02-08T08:13:07.274Z,97534.69
2024-02-08T08:15:51.015Z,97533.04
2024-02-08T08:18:31.213Z,97533.40
2024-02-08T08:21:05.500Z,97532.30
2024-02-08T08:23:59.072Z,97527.16
2024-02-08T08:26:40.754Z,97528.80
2024-02-08T08:29:18.150Z,97527.69
2024-02-08T08:31:53.718Z,97526.58
2024-02-08T08:34:45.167Z,97524.61
2024-02-08T08:37:40.354Z,97521.99
2024-02-08T08:40:39.362Z,97525.61
2024-02-08T08:43:21.312Z,97527.36
2024-02-08T08:46:00.906Z,97523.64
2024-02-08T08:48:36.748Z,97521.42
2024-02-08T08:51:13.999Z,97522.86
2024-02-08T08:53:58.211Z,97521.75
2024-02-08T08:56:32.321Z,97516.67
2024-02-08T08:59:05.872Z,97512.69
2024-02-08T09:01:41.974Z,97515.96
2024-02-08T09:04:27.638Z,97522.57
2024-02-08T09:07:11.637Z,97524.33
2024-02-08T09:10:03.859Z,97519.42
2024-02-08T09:12:40.538Z,97507.95
2024-02-08T09:15:27.721Z,97512.70
2024-02-08T09:18:10.372Z,97517.05
2024-02-08T09:20:45.251Z,97509.01
2024-02-08T09:23:22.184Z,97499.84
2024-02-08T09:25:59.350Z,97492.24
2024-02-08T09:28:37.254Z,97492.77
2024-02-08T09:31:15.376Z,97473.55
2024-02-08T09:33:51.749Z,97477.21
2024-02-08T09:36:26.962Z,97480.77
2024-02-08T09:39:00.406Z,97479.02
2024-02-08T09:41:35.739Z,97474.61
2024-02-08T09:44:13.081Z,97477.98
2024-02-08T09:46:58.091Z,97478.77
2024-02-08T09:49:36.468Z,97481.59
2024-02-08T09:52:18.121Z,97485.39
2024-02-08T09:54:56.497Z,97473.02
2024-02-08T09:57:42.174Z,97460.79
2024-02-08T10:00:53.612Z,97460.52
2024-02-08T10:03:40.323Z,97459.02
2024-02-08T10:06:25.084Z,97453.85
2024-02-08T10:09:18.494Z,97448.27
2024-02-08T10:11:58.937Z,97434.92
2024-02-08T10:14:34.857Z,97436.80
2024-02-08T10:17:19.604Z,97439.15
2024-02-08T10:20:32.936Z,97440.96
2024-02-08T10:23:17.597Z,97437.90
2024-02-08T10:26:18.538Z,97445.66
2024-02-08T10:28:55.055Z,97442.30
2024-02-08T10:31:30.287Z,97435.98
2024-02-08T10:34:12.057Z,97430.05
2024-02-08T10:36:47.324Z,97427.20
2024-02-08T10:39:26.359Z,97420.95
2024-02-08T10:42:00.875Z,97412.41
2024-02-08T10:44:35.974Z,97418.59
2024-02-08T10:47:11.174Z,97423.20
2024-02-08T10:49:47.466Z,97410.88
2024-02-08T10:52:24.073Z,97411.28
2024-02-08T10:54:59.087Z,97408.22
2024-02-08T10:57:40.916Z,97412.31
2024-02-08T11:00:31.781Z,97414.76
2024-02-08T11:03:16.435Z,97411.41
2024-02-08T11:06:02.503Z,97407.59
2024-02-08T11:08:51.434Z,97401.30
2024-02-08T11:11:25.151Z,97397.59
2024-02-08T11:14:01.132Z,97391.06
2024-02-08T11:16:39.127Z,97391.67
2024-02-08T11:19:18.596Z,97391.96
2024-02-08T11:21:53.079Z,97387.96
2024-02-08T11:24:31.018Z,97382.58
2024-02-08T11:27:05.681Z,97370.89
2024-02-08T11:29:49.045Z,97363.55
2024-02-08T11:32:25.562Z,97364.14
2024-02-08T11:35:02.238Z,97369.07
2024-02-08T11:37:39.860Z,97374.23
2024-02-08T11:40:22.394Z,97370.65
2024-02-08T11:43:00.304Z,97371.53
2024-02-08T11:45:38.127Z,97373.96
2024-02-08T11:48:16.282Z,97365.58
2024-02-08T11:50:52.633Z,97360.46
2024-02-08T11:53:33.769Z,97350.40
2024-02-08T11:56:11.204Z,97342.88
2024-02-08T11:58:48.010Z,97336.36
2024-02-08T12:01:27.562Z,97329.34
2024-02-08T12:04:03.135Z,97328.89
2024-02-08T12:06:37.056Z,97327.95
2024-02-08T12:09:23.464Z,97328.08
2024-02-08T12:11:57.018Z,97328.42
2024-02-08T12:14:30.465Z,97331.98
2024-02-08T12:17:07.657Z,97331.11
2024-02-08T12:19:41.960Z,97334.27
2024-02-08T12:22:18.910Z,97332.66
2024-02-08T12:25:01.447Z,97329.22
2024-02-08T12:27:37.150Z,97331.44
2024-02-08T12:30:13.832Z,97330.38
2024-02-08T12:32:47.379Z,97321.29
2024-02-08T12:35:26.499Z,97315.51
2024-02-08T12:38:01.466Z,97303.09
2024-02-08T12:40:35.438Z,97305.79
2024-02-08T12:43:10.533Z,97309.48
2024-02-08T12:45:44.240Z,97313.17
2024-02-08T12:48:21.912Z,97309.20
2024-02-08T12:51:04.693Z,97308.07
2024-02-08T12:53:40.441Z,97297.20
2024-02-08T12:56:16.968Z,97292.24
2024-02-08T12:59:00.798Z,97288.63
2024-02-08T13:01:41.114Z,97286.55
2024-02-08T13:04:21.198Z,97278.83
2024-02-08T13:06:56.753Z,97278.33
2024-02-08T13:09:32.068Z,97280.00
2024-02-08T13:12:20.193Z,97277.89
2024-02-08T13:15:07.320Z,97274.15
2024-02-08T13:17:40.870Z,97277.37
2024-02-08T13:20:16.010Z,97279.12
2024-02-08T13:22:50.403Z,97277.72
2024-02-08T13:25:29.402Z,97280.84
2024-02-08T13:28:04.670Z,97273.59
2024-02-08T13:30:40.902Z,97275.69
2024-02-08T13:33:15.051Z,97272.85
2024-02-08T13:35:49.065Z,97273.95
2024-02-08T13:38:24.009Z,97270.95
2024-02-08T13:41:00.798Z,97268.48
2024-02-08T13:43:34.814Z,97267.30
2024-02-08T13:46:09.322Z,97258.71
2024-02-08T13:48:42.833Z,97263.66
2024-02-08T13:51:17.901Z,97260.52
2024-02-08T13:53:52.162Z,97255.24
2024-02-08T13:56:25.675Z,97248.51
2024-02-08T13:59:01.691Z,97245.52
2024-02-08T14:01:35.469Z,97246.47
2024-02-08T14:04:09.196Z,97241.80
2024-02-08T14:06:43.739Z,97238.82
2024-02-08T14:09:22.017Z,97235.90
2024-02-08T14:11:57.137Z,97239.42
2024-02-08T14:14:41.593Z,97241.10
2024-02-08T14:17:21.717Z,97240.27
2024-02-08T14:19:56.775Z,97243.00
2024-02-08T14:22:39.968Z,97241.98
2024-02-08T14:25:24.888Z,97237.45
2024-02-08T14:27:58.586Z,97234.27
2024-02-08T14:30:35.346Z,97239.48
2024-02-08T14:33:09.050Z,97238.62
2024-02-08T14:35:42.688Z,97241.05
2024-02-08T14:38:16.443Z,97241.50
2024-02-08T14:40:49.980Z,97239.30
2024-02-08T14:43:33.120Z,97232.52
2024-02-08T14:46:07.356Z,97229.43
2024-02-08T14:48:40.854Z,97223.90
2024-02-08T14:51:28.355Z,97220.73
2024-02-08T14:54:01.821Z,97218.17
2024-02-08T14:56:36.425Z,97224.52
2024-02-08T14:59:14.655Z,97221.06
2024-02-08T15:01:54.015Z,97222.87
2024-02-08T15:04:32.162Z,97218.08
2024-02-08T15:07:10.168Z,97222.59
2024-02-08T15:09:50.080Z,97226.72
2024-02-08T15:12:32.344Z,97225.77
2024-02-08T15:15:08.610Z,97227.45
2024-02-08T15:17:45.261Z,97227.77
2024-02-08T15:20:36.689Z,97221.92
2024-02-08T15:23:33.374Z,97222.08
2024-02-08T15:26:14.483Z,97215.93
2024-02-08T15:28:57.093Z,97217.86
2024-02-08T15:31:47.334Z,97218.61
2024-02-08T15:34:29.137Z,97210.18
2024-02-08T15:37:21.473Z,97203.73
2024-02-08T15:40:15.631Z,97196.16
2024-02-08T15:42:50.654Z,97195.65
2024-02-08T15:45:28.773Z,97191.82
2024-02-08T15:48:05.585Z,97191.09
2024-02-08T15:50:44.876Z,97198.04
2024-02-08T15:53:19.749Z,97192.81
2024-02-08T15:55:57.466Z,97190.77
2024-02-08T15:58:32.005Z,97188.48
2024-02-08T16:01:21.452Z,97189.89
2024-02-08T16:03:56.638Z,97182.20
2024-02-08T16:06:44.627Z,97181.58
2024-02-08T16:09:34.137Z,97183.38
2024-02-08T16:12:23.289Z,97180.38
2024-02-08T16:15:01.861Z,97178.54
2024-02-08T16:17:40.838Z,97172.15
2024-02-08T16:20:25.659Z,97167.66
2024-02-08T16:23:07.905Z,97158.19
2024-02-08T16:25:46.730Z,97153.16
2024-02-08T16:28:22.257Z,97161.35
2024-02-08T16:31:08.289Z,97161.91
2024-02-08T16:33:50.365Z,97153.30
2024-02-08T16:36:36.567Z,97151.39
2024-02-08T16:39:31.278Z,97152.20
2024-02-08T16:42:19.022Z,97155.11
2024-02-08T16:44:58.007Z,97155.11
2024-02-08T16:47:36.115Z,97155.45
2024-02-08T16:50:19.428Z,97165.21
2024-02-08T16:53:00.608Z,97167.46
2024-02-08T16:55:41.066Z,97158.17
2024-02-08T16:58:30.022Z,97156.04
2024-02-08T17:01:06.557Z,97158.96
2024-02-08T17:04:02.272Z,97167.61
2024-02-08T17:06:44.824Z,97165.01
2024-02-08T17:09:25.733Z,97159.17
2024-02-08T17:12:06.589Z,97149.23
2024-02-08T17:14:48.303Z,97136.65
2024-02-08T17:17:36.230Z,97128.77
2024-02-08T17:20:24.172Z,97134.48
2024-02-08T17:23:06.944Z,97128.98
2024-02-08T17:25:56.896Z,97128.58
2024-02-08T17:28:37.445Z,97119.77
2024-02-08T17:31:23.211Z,97114.31
2024-02-08T17:33:58.216Z,97114.46
2024-02-08T17:36:34.622Z,97110.94
2024-02-08T17:39:12.310Z,97114.52
2024-02-08T17:41:45.850Z,97115.00
2024-02-08T17:44:20.356Z,97113.89
2024-02-08T17:46:54.238Z,97114.44
2024-02-08T17:49:31.219Z,97112.07
2024-02-08T17:52:07.107Z,97109.39
2024-02-08T17:54:47.072Z,97107.57
2024-02-08T17:57:25.273Z,97102.39
2024-02-08T18:00:00.830Z,97104.44
2024-02-08T18:02:37.572Z,97099.05
2024-02-08T18:05:15.952Z,97091.81
2024-02-08T18:07:49.259Z,97085.48
2024-02-08T18:10:38.728Z,97081.35
2024-02-08T18:13:12.550Z,97082.97
2024-02-08T18:15:52.223Z,97083.89
2024-02-08T18:18:26.715Z,97084.67
2024-02-08T18:21:03.909Z,97090.98
2024-02-08T18:23:45.406Z,97085.59
2024-02-08T18:26:32.975Z,97079.29
2024-02-08T18:29:09.117Z,97077.79
2024-02-08T18:31:57.152Z,97074.00
2024-02-08T18:35:18.071Z,97063.27
2024-02-08T18:38:09.918Z,97057.53
2024-02-08T18:40:55.002Z,97051.20
2024-02-08T18:43:41.366Z,97047.38
2024-02-08T18:46:18.844Z,97043.59
2024-02-08T18:48:57.881Z,97042.60
2024-02-08T18:51:37.412Z,97038.88
2024-02-08T18:54:12.890Z,97031.71
2024-02-08T18:56:47.911Z,97029.75
2024-02-08T18:59:21.946Z,97023.20
2024-02-08T19:02:05.537Z,97024.21
2024-02-08T19:05:13.074Z,97025.16
2024-02-08T19:08:16.758Z,97024.38
2024-02-08T19:10:59.828Z,97020.67
2024-02-08T19:13:40.967Z,97016.19
2024-02-08T19:16:29.323Z,97014.61
2024-02-08T19:19:06.289Z,97023.66
2024-02-08T19:21:59.977Z,97018.61
2024-02-08T19:33:00.736Z,97004.75
2024-02-08T19:35:55.837Z,97006.46
2024-02-08T19:38:32.576Z,97001.60
2024-02-08T19:41:08.426Z,97002.38
2024-02-08T19:43:46.753Z,96991.65
2024-02-08T19:46:21.255Z,96982.77
2024-02-08T19:48:59.124Z,96978.84
2024-02-08T19:51:37.366Z,96977.41
2024-02-08T19:54:10.830Z,96974.27
2024-02-08T19:56:44.998Z,96966.77
2024-02-08T19:59:20.730Z,96972.17
2024-02-08T20:01:55.465Z,96970.02
2024-02-08T20:04:29.258Z,96971.11
2024-02-08T20:07:06.220Z,96964.38
2024-02-08T20:09:43.760Z,96967.27
2024-02-08T20:12:18.177Z,96965.36
2024-02-08T20:14:52.830Z,96966.99
2024-02-08T20:17:27.255Z,96962.02
2024-02-08T20:20:01.476Z,96969.11
2024-02-08T20:22:35.117Z,96967.61
2024-02-08T20:25:12.796Z,96963.89
2024-02-08T20:27:46.953Z,96961.95
2024-02-08T20:30:22.520Z,96961.23
2024-02-08T20:33:00.313Z,96958.37
2024-02-08T20:35:35.015Z,96961.20
2024-02-08T20:38:13.057Z,96954.82
2024-02-08T20:40:47.386Z,96955.38
2024-02-08T20:43:23.863Z,96956.95
2024-02-08T20:46:00.576Z,96927.90
2024-02-08T20:48:34.951Z,96938.14
2024-02-08T20:51:11.301Z,96929.95
2024-02-08T20:53:45.042Z,96923.97
2024-02-08T20:56:27.342Z,96916.95
2024-02-08T20:59:02.616Z,96920.17
2024-02-08T21:01:37.370Z,96927.08
2024-02-08T21:04:15.500Z,96913.32
2024-02-08T21:06:49.904Z,96908.83
2024-02-08T21:09:23.518Z,96914.27
2024-02-08T21:11:57.405Z,96915.52
2024-02-08T21:14:33.779Z,96917.17
2024-02-08T21:17:12.078Z,96913.16
2024-02-08T21:19:48.724Z,96918.17
2024-02-08T21:22:23.841Z,96917.16
2024-02-08T21:24:57.568Z,96917.61
2024-02-08T21:27:34.758Z,96914.14
2024-02-08T21:30:12.802Z,96914.92
2024-02-08T21:32:49.198Z,96913.20
2024-02-08T21:35:22.905Z,96916.73
2024-02-08T21:37:56.318Z,96912.73
2024-02-08T21:40:29.921Z,96901.88
2024-02-08T21:43:05.733Z,96904.02
2024-02-08T21:45:43.002Z,96905.51
2024-02-08T21:48:17.478Z,96903.14
2024-02-08T21:50:53.334Z,96907.39
2024-02-08T21:53:27.465Z,96889.52
2024-02-08T21:56:01.162Z,96887.69
2024-02-08T21:58:35.406Z,96899.13
2024-02-08T22:04:06.135Z,96865.20
2024-02-08T22:06:41.052Z,96863.58
2024-02-08T22:09:15.161Z,96865.76
2024-02-08T22:11:54.954Z,96862.19
2024-02-08T22:14:31.825Z,96863.31
2024-02-08T22:17:10.857Z,96864.63
2024-02-08T22:19:47.567Z,96864.15
2024-02-08T22:22:21.355Z,96873.06
2024-02-08T22:24:55.692Z,96879.50
2024-02-08T22:27:29.931Z,96881.85
2024-02-08T22:30:03.977Z,96875.86
2024-02-08T22:32:37.482Z,96867.04
2024-02-08T22:35:12.803Z,96875.53
2024-02-08T22:37:50.227Z,96892.38
2024-02-08T22:40:24.385Z,96876.33
2024-02-08T22:43:00.181Z,96875.05
2024-02-08T22:45:34.386Z,96884.10
2024-02-08T22:48:09.075Z,96896.13
2024-02-08T22:50:42.911Z,96908.09
2024-02-08T22:53:16.332Z,96898.73
2024-02-08T22:55:52.170Z,96902.27
2024-02-08T22:58:25.869Z,96924.06
2024-02-08T23:01:22.307Z,96912.25
2024-02-08T23:03:56.833Z,96912.58
2024-02-08T23:06:34.267Z,96919.34
2024-02-08T23:09:09.810Z,96914.56
2024-02-08T23:11:44.532Z,96914.23
2024-02-08T23:14:21.696Z,96922.80
2024-02-08T23:16:55.454Z,96927.28
2024-02-08T23:19:33.428Z,96927.02
2024-02-08T23:22:08.915Z,96930.00
2024-02-08T23:24:43.035Z,96931.02
2024-02-08T23:27:16.851Z,96932.12
2024-02-08T23:29:51.023Z,96926.07
2024-02-08T23:32:26.310Z,96926.70
2024-02-08T23:34:59.852Z,96925.98
2024-02-08T23:37:33.500Z,96922.13
2024-02-08T23:40:09.694Z,96914.95
2024-02-08T23:42:43.236Z,96913.86
2024-02-08T23:45:17.589Z,96912.13
2024-02-08T23:47:51.611Z,96911.00
2024-02-08T23:50:26.070Z,96909.57
2024-02-08T23:53:01.820Z,96905.86
2024-02-08T23:55:38.965Z,96909.18
2024-02-08T23:58:15.645Z,96900.84
